sensor_id;sensor_type;location;lat;lon;timestamp;pressure;altitude;pressure_sealevel;temperature;humidity
54870;BME280;40756;-37.950;145.008;2022-09-14T00:01:51;102061.33;;;15.26;30.97
54870;BME280;40756;-37.950;145.008;2022-09-14T00:04:21;102060.66;;;15.43;30.88
54870;BME280;40756;-37.950;145.008;2022-09-14T00:06:50;102052.43;;;15.47;30.81
54870;BME280;40756;-37.950;145.008;2022-09-14T00:09:22;102057.29;;;14.85;30.19
54870;BME280;40756;-37.950;145.008;2022-09-14T00:11:52;102055.16;;;15.18;29.85
54870;BME280;40756;-37.950;145.008;2022-09-14T00:14:22;102053.39;;;15.04;30.08
54870;BME280;40756;-37.950;145.008;2022-09-14T00:16:51;102050.62;;;15.38;29.10
54870;BME280;40756;-37.950;145.008;2022-09-14T00:19:23;102035.10;;;15.44;28.97
54870;BME280;40756;-37.950;145.008;2022-09-14T00:21:54;102039.13;;;15.87;29.15
54870;BME280;40756;-37.950;145.008;2022-09-14T00:24:25;102037.05;;;15.27;27.72
54870;BME280;40756;-37.950;145.008;2022-09-14T00:26:55;102029.61;;;16.00;28.55
54870;BME280;40756;-37.950;145.008;2022-09-14T00:29:25;102032.32;;;15.81;29.28
54870;BME280;40756;-37.950;145.008;2022-09-14T00:31:55;102021.95;;;16.00;28.02
54870;BME280;40756;-37.950;145.008;2022-09-14T00:34:25;102018.97;;;16.51;28.31
54870;BME280;40756;-37.950;145.008;2022-09-14T00:36:55;102017.78;;;16.85;27.58
54870;BME280;40756;-37.950;145.008;2022-09-14T00:39:25;102000.31;;;16.27;27.26
54870;BME280;40756;-37.950;145.008;2022-09-14T00:41:55;101993.66;;;16.91;27.66
54870;BME280;40756;-37.950;145.008;2022-09-14T00:45:29;101989.69;;;17.17;27.46
54870;BME280;40756;-37.950;145.008;2022-09-14T00:47:58;101978.53;;;17.14;26.54
54870;BME280;40756;-37.950;145.008;2022-09-14T00:50:28;101973.64;;;17.12;26.35
54870;BME280;40756;-37.950;145.008;2022-09-14T00:52:58;101964.70;;;17.46;26.94
54870;BME280;40756;-37.950;145.008;2022-09-14T00:55:28;101957.73;;;17.84;27.58
54870;BME280;40756;-37.950;145.008;2022-09-14T00:57:58;101954.11;;;16.97;26.79
54870;BME280;40756;-37.950;145.008;2022-09-14T01:00:30;101949.70;;;17.55;27.91
54870;BME280;40756;-37.950;145.008;2022-09-14T01:02:59;101941.55;;;17.43;27.29
54870;BME280;40756;-37.950;145.008;2022-09-14T01:05:38;101930.62;;;17.99;27.38
54870;BME280;40756;-37.950;145.008;2022-09-14T01:08:32;101930.16;;;17.87;26.57
54870;BME280;40756;-37.950;145.008;2022-09-14T01:11:17;101921.47;;;18.10;26.78
54870;BME280;40756;-37.950;145.008;2022-09-14T01:13:57;101918.98;;;18.35;26.15
54870;BME280;40756;-37.950;145.008;2022-09-14T01:16:36;101908.59;;;18.36;27.12
54870;BME280;40756;-37.950;145.008;2022-09-14T01:19:18;101908.24;;;18.64;25.66
54870;BME280;40756;-37.950;145.008;2022-09-14T01:21:53;101917.21;;;18.17;25.26
54870;BME280;40756;-37.950;145.008;2022-09-14T01:24:27;101911.55;;;17.36;25.53
54870;BME280;40756;-37.950;145.008;2022-09-14T01:27:24;101911.20;;;17.36;25.94
54870;BME280;40756;-37.950;145.008;2022-09-14T01:30:02;101902.01;;;18.48;26.88
54870;BME280;40756;-37.950;145.008;2022-09-14T01:32:38;101899.82;;;18.42;26.95
54870;BME280;40756;-37.950;145.008;2022-09-14T01:35:14;101890.86;;;18.84;26.23
54870;BME280;40756;-37.950;145.008;2022-09-14T01:37:49;101900.77;;;19.04;26.35
54870;BME280;40756;-37.950;145.008;2022-09-14T01:40:28;101896.70;;;18.92;25.19
54870;BME280;40756;-37.950;145.008;2022-09-14T01:43:02;101894.61;;;18.98;25.77
54870;BME280;40756;-37.950;145.008;2022-09-14T01:45:33;101894.16;;;19.12;23.75
54870;BME280;40756;-37.950;145.008;2022-09-14T01:48:06;101897.51;;;19.41;24.36
54870;BME280;40756;-37.950;145.008;2022-09-14T01:50:40;101889.07;;;19.62;24.47
54870;BME280;40756;-37.950;145.008;2022-09-14T01:53:14;101893.30;;;19.68;23.68
54870;BME280;40756;-37.950;145.008;2022-09-14T01:55:50;101891.85;;;18.75;24.41
54870;BME280;40756;-37.950;145.008;2022-09-14T01:58:24;101886.96;;;18.84;23.60
54870;BME280;40756;-37.950;145.008;2022-09-14T02:00:56;101872.85;;;19.63;24.00
54870;BME280;40756;-37.950;145.008;2022-09-14T02:03:30;101868.28;;;19.65;24.80
54870;BME280;40756;-37.950;145.008;2022-09-14T02:06:08;101859.69;;;19.64;24.49
54870;BME280;40756;-37.950;145.008;2022-09-14T02:08:39;101856.07;;;20.36;24.49
54870;BME280;40756;-37.950;145.008;2022-09-14T02:11:09;101839.68;;;20.56;25.38
54870;BME280;40756;-37.950;145.008;2022-09-14T02:13:38;101836.21;;;21.06;23.64
54870;BME280;40756;-37.950;145.008;2022-09-14T02:16:08;101833.43;;;21.15;23.51
54870;BME280;40756;-37.950;145.008;2022-09-14T02:18:38;101834.32;;;20.97;22.88
54870;BME280;40756;-37.950;145.008;2022-09-14T02:21:12;101826.01;;;21.62;22.86
54870;BME280;40756;-37.950;145.008;2022-09-14T02:23:43;101809.18;;;21.56;21.66
54870;BME280;40756;-37.950;145.008;2022-09-14T02:26:13;101801.07;;;21.84;22.54
54870;BME280;40756;-37.950;145.008;2022-09-14T02:28:43;101795.14;;;22.33;22.84
54870;BME280;40756;-37.950;145.008;2022-09-14T02:31:20;101790.99;;;22.80;21.88
54870;BME280;40756;-37.950;145.008;2022-09-14T02:33:56;101784.22;;;23.27;22.04
54870;BME280;40756;-37.950;145.008;2022-09-14T02:36:45;101777.24;;;23.48;21.53
54870;BME280;40756;-37.950;145.008;2022-09-14T02:39:23;101762.01;;;23.35;20.21
54870;BME280;40756;-37.950;145.008;2022-09-14T02:42:01;101759.80;;;23.68;20.43
54870;BME280;40756;-37.950;145.008;2022-09-14T02:44:39;101754.30;;;23.78;21.28
54870;BME280;40756;-37.950;145.008;2022-09-14T02:47:16;101744.83;;;24.10;21.10
54870;BME280;40756;-37.950;145.008;2022-09-14T02:49:55;101742.20;;;24.13;21.74
54870;BME280;40756;-37.950;145.008;2022-09-14T02:52:32;101729.90;;;24.34;19.63
54870;BME280;40756;-37.950;145.008;2022-09-14T02:55:06;101723.90;;;24.44;20.33
54870;BME280;40756;-37.950;145.008;2022-09-14T02:58:02;101720.71;;;24.74;20.23
54870;BME280;40756;-37.950;145.008;2022-09-14T03:00:34;101721.76;;;24.86;20.88
54870;BME280;40756;-37.950;145.008;2022-09-14T03:03:04;101727.47;;;24.44;20.72
54870;BME280;40756;-37.950;145.008;2022-09-14T03:05:34;101720.90;;;25.03;20.64
54870;BME280;40756;-37.950;145.008;2022-09-14T03:08:05;101717.08;;;24.94;20.28
54870;BME280;40756;-37.950;145.008;2022-09-14T03:10:35;101717.21;;;25.06;20.19
54870;BME280;40756;-37.950;145.008;2022-09-14T03:13:05;101715.80;;;24.82;19.92
54870;BME280;40756;-37.950;145.008;2022-09-14T03:15:34;101711.06;;;24.76;19.79
54870;BME280;40756;-37.950;145.008;2022-09-14T03:18:05;101722.64;;;25.21;20.35
54870;BME280;40756;-37.950;145.008;2022-09-14T03:20:36;101727.24;;;25.09;19.60
54870;BME280;40756;-37.950;145.008;2022-09-14T03:23:06;101730.41;;;24.25;18.61
54870;BME280;40756;-37.950;145.008;2022-09-14T03:25:38;101727.33;;;24.80;20.10
54870;BME280;40756;-37.950;145.008;2022-09-14T03:28:09;101730.98;;;25.09;20.15
54870;BME280;40756;-37.950;145.008;2022-09-14T03:30:38;101736.70;;;25.20;20.10
54870;BME280;40756;-37.950;145.008;2022-09-14T03:33:09;101733.04;;;25.26;19.03
54870;BME280;40756;-37.950;145.008;2022-09-14T03:35:38;101745.75;;;25.63;19.65
54870;BME280;40756;-37.950;145.008;2022-09-14T03:38:07;101742.56;;;25.56;17.36
54870;BME280;40756;-37.950;145.008;2022-09-14T03:40:37;101736.19;;;25.80;18.75
54870;BME280;40756;-37.950;145.008;2022-09-14T03:43:07;101736.33;;;25.59;18.06
54870;BME280;40756;-37.950;145.008;2022-09-14T03:45:37;101735.76;;;24.95;16.24
54870;BME280;40756;-37.950;145.008;2022-09-14T03:48:06;101711.92;;;25.06;16.32
54870;BME280;40756;-37.950;145.008;2022-09-14T03:50:37;101707.32;;;24.88;16.56
54870;BME280;40756;-37.950;145.008;2022-09-14T03:53:06;101703.90;;;24.99;17.69
54870;BME280;40756;-37.950;145.008;2022-09-14T03:55:35;101691.72;;;25.44;17.12
54870;BME280;40756;-37.950;145.008;2022-09-14T03:58:07;101690.23;;;26.34;18.95
54870;BME280;40756;-37.950;145.008;2022-09-14T04:00:39;101679.20;;;26.01;18.69
54870;BME280;40756;-37.950;145.008;2022-09-14T04:03:08;101676.58;;;25.66;18.07
54870;BME280;40756;-37.950;145.008;2022-09-14T04:05:38;101674.78;;;24.73;16.72
54870;BME280;40756;-37.950;145.008;2022-09-14T04:08:07;101679.38;;;24.32;17.55
54870;BME280;40756;-37.950;145.008;2022-09-14T04:10:39;101664.55;;;24.58;17.67
54870;BME280;40756;-37.950;145.008;2022-09-14T04:13:08;101656.49;;;24.84;18.73
54870;BME280;40756;-37.950;145.008;2022-09-14T04:15:37;101646.37;;;25.79;18.22
54870;BME280;40756;-37.950;145.008;2022-09-14T04:18:06;101643.64;;;25.40;18.73
54870;BME280;40756;-37.950;145.008;2022-09-14T04:20:36;101626.41;;;25.69;17.77
54870;BME280;40756;-37.950;145.008;2022-09-14T04:23:05;101627.01;;;24.90;17.88
54870;BME280;40756;-37.950;145.008;2022-09-14T04:25:34;101626.69;;;24.87;18.21
54870;BME280;40756;-37.950;145.008;2022-09-14T04:28:04;101627.25;;;25.38;17.46
54870;BME280;40756;-37.950;145.008;2022-09-14T04:30:33;101609.60;;;25.53;18.36
54870;BME280;40756;-37.950;145.008;2022-09-14T04:33:02;101607.90;;;25.38;18.00
54870;BME280;40756;-37.950;145.008;2022-09-14T04:35:32;101604.35;;;25.62;17.93
54870;BME280;40756;-37.950;145.008;2022-09-14T04:38:02;101598.78;;;26.07;17.83
54870;BME280;40756;-37.950;145.008;2022-09-14T04:40:32;101589.69;;;26.10;17.63
54870;BME280;40756;-37.950;145.008;2022-09-14T04:43:02;101582.19;;;25.82;17.49
54870;BME280;40756;-37.950;145.008;2022-09-14T04:45:33;101568.96;;;25.38;16.54
54870;BME280;40756;-37.950;145.008;2022-09-14T04:48:02;101565.53;;;26.25;18.03
54870;BME280;40756;-37.950;145.008;2022-09-14T04:50:33;101555.38;;;26.44;18.20
54870;BME280;40756;-37.950;145.008;2022-09-14T04:53:02;101548.73;;;26.16;16.48
54870;BME280;40756;-37.950;145.008;2022-09-14T04:55:32;101543.72;;;26.16;17.12
54870;BME280;40756;-37.950;145.008;2022-09-14T04:58:02;101541.63;;;26.43;17.39
54870;BME280;40756;-37.950;145.008;2022-09-14T05:00:34;101533.26;;;26.40;17.13
54870;BME280;40756;-37.950;145.008;2022-09-14T05:03:05;101527.65;;;26.59;17.67
54870;BME280;40756;-37.950;145.008;2022-09-14T05:05:36;101527.40;;;26.01;17.79
54870;BME280;40756;-37.950;145.008;2022-09-14T05:08:05;101517.97;;;25.78;17.45
54870;BME280;40756;-37.950;145.008;2022-09-14T05:10:35;101506.36;;;25.79;17.04
54870;BME280;40756;-37.950;145.008;2022-09-14T05:13:04;101508.37;;;25.66;17.98
54870;BME280;40756;-37.950;145.008;2022-09-14T05:15:33;101504.73;;;25.67;18.33
54870;BME280;40756;-37.950;145.008;2022-09-14T05:18:03;101505.19;;;25.65;17.20
54870;BME280;40756;-37.950;145.008;2022-09-14T05:20:33;101507.99;;;24.85;17.96
54870;BME280;40756;-37.950;145.008;2022-09-14T05:23:02;101499.85;;;25.09;18.22
54870;BME280;40756;-37.950;145.008;2022-09-14T05:25:32;101503.86;;;24.99;18.18
54870;BME280;40756;-37.950;145.008;2022-09-14T05:28:02;101494.91;;;24.09;18.68
54870;BME280;40756;-37.950;145.008;2022-09-14T05:30:31;101488.83;;;24.45;19.18
54870;BME280;40756;-37.950;145.008;2022-09-14T05:33:01;101488.34;;;24.11;17.98
54870;BME280;40756;-37.950;145.008;2022-09-14T05:35:31;101474.00;;;24.34;18.34
54870;BME280;40756;-37.950;145.008;2022-09-14T05:38:01;101472.30;;;24.10;19.06
54870;BME280;40756;-37.950;145.008;2022-09-14T05:40:30;101472.62;;;23.93;19.41
54870;BME280;40756;-37.950;145.008;2022-09-14T05:42:59;101473.34;;;23.17;17.93
54870;BME280;40756;-37.950;145.008;2022-09-14T05:45:29;101465.13;;;23.88;18.13
54870;BME280;40756;-37.950;145.008;2022-09-14T05:48:02;101466.47;;;23.36;18.77
54870;BME280;40756;-37.950;145.008;2022-09-14T05:50:31;101469.64;;;22.92;19.08
54870;BME280;40756;-37.950;145.008;2022-09-14T05:53:01;101463.99;;;22.60;20.09
54870;BME280;40756;-37.950;145.008;2022-09-14T05:55:30;101464.77;;;22.80;20.26
54870;BME280;40756;-37.950;145.008;2022-09-14T05:57:59;101465.45;;;23.26;21.93
54870;BME280;40756;-37.950;145.008;2022-09-14T06:00:29;101465.90;;;22.62;20.84
54870;BME280;40756;-37.950;145.008;2022-09-14T06:02:58;101462.43;;;22.21;19.43
54870;BME280;40756;-37.950;145.008;2022-09-14T06:05:28;101460.95;;;22.45;20.03
54870;BME280;40756;-37.950;145.008;2022-09-14T06:07:57;101467.53;;;22.15;20.66
54870;BME280;40756;-37.950;145.008;2022-09-14T06:10:27;101468.25;;;21.87;20.57
54870;BME280;40756;-37.950;145.008;2022-09-14T06:12:56;101463.37;;;22.23;20.73
54870;BME280;40756;-37.950;145.008;2022-09-14T06:15:27;101468.64;;;21.54;21.97
54870;BME280;40756;-37.950;145.008;2022-09-14T06:17:58;101465.56;;;21.37;21.29
54870;BME280;40756;-37.950;145.008;2022-09-14T06:20:28;101461.70;;;20.95;21.33
54870;BME280;40756;-37.950;145.008;2022-09-14T06:23:00;101452.65;;;20.88;22.07
54870;BME280;40756;-37.950;145.008;2022-09-14T06:25:30;101450.37;;;20.69;22.10
54870;BME280;40756;-37.950;145.008;2022-09-14T06:28:00;101450.85;;;20.69;21.84
54870;BME280;40756;-37.950;145.008;2022-09-14T06:30:30;101454.77;;;20.67;22.01
54870;BME280;40756;-37.950;145.008;2022-09-14T06:33:00;101448.64;;;19.96;22.14
54870;BME280;40756;-37.950;145.008;2022-09-14T06:35:33;101445.85;;;20.43;23.47
54870;BME280;40756;-37.950;145.008;2022-09-14T06:38:02;101442.78;;;20.01;22.29
54870;BME280;40756;-37.950;145.008;2022-09-14T06:40:32;101447.08;;;18.84;23.40
54870;BME280;40756;-37.950;145.008;2022-09-14T06:43:02;101437.63;;;19.09;23.45
54870;BME280;40756;-37.950;145.008;2022-09-14T06:45:31;101438.03;;;18.97;23.45
54870;BME280;40756;-37.950;145.008;2022-09-14T06:48:01;101425.30;;;19.54;23.38
54870;BME280;40756;-37.950;145.008;2022-09-14T06:50:30;101431.21;;;18.33;24.42
54870;BME280;40756;-37.950;145.008;2022-09-14T06:53:01;101430.08;;;19.42;24.13
54870;BME280;40756;-37.950;145.008;2022-09-14T06:55:30;101432.36;;;18.90;24.26
54870;BME280;40756;-37.950;145.008;2022-09-14T06:58:00;101428.91;;;19.55;24.47
54870;BME280;40756;-37.950;145.008;2022-09-14T07:00:29;101434.01;;;18.77;24.95
54870;BME280;40756;-37.950;145.008;2022-09-14T07:02:59;101427.36;;;19.42;26.80
54870;BME280;40756;-37.950;145.008;2022-09-14T07:05:29;101428.52;;;19.32;25.08
54870;BME280;40756;-37.950;145.008;2022-09-14T07:07:58;101424.10;;;18.88;25.70
54870;BME280;40756;-37.950;145.008;2022-09-14T07:10:28;101427.07;;;19.12;26.86
54870;BME280;40756;-37.950;145.008;2022-09-14T07:12:58;101426.15;;;18.78;25.35
54870;BME280;40756;-37.950;145.008;2022-09-14T07:15:28;101425.87;;;19.09;26.93
54870;BME280;40756;-37.950;145.008;2022-09-14T07:17:58;101419.32;;;18.91;26.44
54870;BME280;40756;-37.950;145.008;2022-09-14T07:20:27;101415.28;;;18.93;26.01
54870;BME280;40756;-37.950;145.008;2022-09-14T07:22:57;101420.90;;;18.85;26.38
54870;BME280;40756;-37.950;145.008;2022-09-14T07:25:27;101417.73;;;18.62;25.91
54870;BME280;40756;-37.950;145.008;2022-09-14T07:27:56;101414.18;;;18.47;26.57
54870;BME280;40756;-37.950;145.008;2022-09-14T07:30:26;101416.20;;;18.48;26.94
54870;BME280;40756;-37.950;145.008;2022-09-14T07:32:55;101415.20;;;17.83;26.98
54870;BME280;40756;-37.950;145.008;2022-09-14T07:35:25;101416.83;;;18.15;27.29
54870;BME280;40756;-37.950;145.008;2022-09-14T07:37:55;101418.46;;;18.32;27.42
54870;BME280;40756;-37.950;145.008;2022-09-14T07:40:25;101422.13;;;17.45;28.01
54870;BME280;40756;-37.950;145.008;2022-09-14T07:42:55;101420.97;;;17.92;28.17
54870;BME280;40756;-37.950;145.008;2022-09-14T07:45:25;101409.66;;;17.81;27.98
54870;BME280;40756;-37.950;145.008;2022-09-14T07:47:54;101411.25;;;17.81;28.06
54870;BME280;40756;-37.950;145.008;2022-09-14T07:50:24;101403.81;;;17.83;28.86
54870;BME280;40756;-37.950;145.008;2022-09-14T07:52:54;101400.20;;;17.85;28.28
54870;BME280;40756;-37.950;145.008;2022-09-14T07:55:23;101401.45;;;17.87;28.41
54870;BME280;40756;-37.950;145.008;2022-09-14T07:57:55;101399.15;;;17.47;29.13
54870;BME280;40756;-37.950;145.008;2022-09-14T08:00:24;101388.41;;;17.03;29.45
54870;BME280;40756;-37.950;145.008;2022-09-14T08:02:54;101392.62;;;17.19;29.76
54870;BME280;40756;-37.950;145.008;2022-09-14T08:05:24;101384.92;;;17.06;29.32
54870;BME280;40756;-37.950;145.008;2022-09-14T08:07:55;101382.54;;;17.10;29.55
54870;BME280;40756;-37.950;145.008;2022-09-14T08:10:25;101389.39;;;17.36;29.65
54870;BME280;40756;-37.950;145.008;2022-09-14T08:12:55;101392.32;;;17.61;29.34
54870;BME280;40756;-37.950;145.008;2022-09-14T08:15:25;101380.99;;;16.88;29.66
54870;BME280;40756;-37.950;145.008;2022-09-14T08:17:54;101381.64;;;17.38;30.22
54870;BME280;40756;-37.950;145.008;2022-09-14T08:20:24;101373.60;;;17.04;29.70
54870;BME280;40756;-37.950;145.008;2022-09-14T08:22:54;101372.75;;;17.22;29.99
54870;BME280;40756;-37.950;145.008;2022-09-14T08:25:23;101376.11;;;17.37;30.30
54870;BME280;40756;-37.950;145.008;2022-09-14T08:27:53;101381.89;;;17.33;29.97
54870;BME280;40756;-37.950;145.008;2022-09-14T08:30:22;101379.34;;;16.74;30.10
54870;BME280;40756;-37.950;145.008;2022-09-14T08:32:52;101377.81;;;16.98;30.77
54870;BME280;40756;-37.950;145.008;2022-09-14T08:35:22;101377.36;;;17.06;30.52
54870;BME280;40756;-37.950;145.008;2022-09-14T08:37:51;101381.27;;;17.31;30.42
54870;BME280;40756;-37.950;145.008;2022-09-14T08:40:22;101374.19;;;17.56;30.43
54870;BME280;40756;-37.950;145.008;2022-09-14T08:43:03;101371.32;;;16.93;30.94
54870;BME280;40756;-37.950;145.008;2022-09-14T08:45:32;101376.32;;;17.29;30.69
54870;BME280;40756;-37.950;145.008;2022-09-14T08:48:03;101370.29;;;17.01;30.66
54870;BME280;40756;-37.950;145.008;2022-09-14T08:50:33;101364.33;;;17.06;31.22
54870;BME280;40756;-37.950;145.008;2022-09-14T08:53:03;101358.03;;;17.27;32.34
54870;BME280;40756;-37.950;145.008;2022-09-14T08:55:36;101356.06;;;17.14;32.77
54870;BME280;40756;-37.950;145.008;2022-09-14T08:58:17;101360.15;;;17.33;31.69
54870;BME280;40756;-37.950;145.008;2022-09-14T09:00:55;101356.63;;;17.19;31.78
54870;BME280;40756;-37.950;145.008;2022-09-14T09:03:52;101351.85;;;17.24;31.17
54870;BME280;40756;-37.950;145.008;2022-09-14T09:06:31;101344.88;;;17.06;31.65
54870;BME280;40756;-37.950;145.008;2022-09-14T09:09:08;101343.16;;;17.05;32.29
54870;BME280;40756;-37.950;145.008;2022-09-14T09:11:44;101345.95;;;17.01;30.56
54870;BME280;40756;-37.950;145.008;2022-09-14T09:14:20;101349.68;;;17.00;30.99
54870;BME280;40756;-37.950;145.008;2022-09-14T09:16:54;101353.04;;;17.40;31.05
54870;BME280;40756;-37.950;145.008;2022-09-14T09:19:29;101351.81;;;16.94;30.86
54870;BME280;40756;-37.950;145.008;2022-09-14T09:22:00;101355.24;;;17.50;30.67
54870;BME280;40756;-37.950;145.008;2022-09-14T09:24:35;101357.86;;;16.80;30.97
54870;BME280;40756;-37.950;145.008;2022-09-14T09:27:10;101354.33;;;17.07;30.73
54870;BME280;40756;-37.950;145.008;2022-09-14T09:29:40;101350.03;;;16.75;31.28
54870;BME280;40756;-37.950;145.008;2022-09-14T09:32:15;101348.41;;;16.69;30.70
54870;BME280;40756;-37.950;145.008;2022-09-14T09:34:45;101342.00;;;16.79;30.51
54870;BME280;40756;-37.950;145.008;2022-09-14T09:37:17;101338.39;;;16.74;31.23
54870;BME280;40756;-37.950;145.008;2022-09-14T09:39:47;101337.00;;;16.90;31.16
54870;BME280;40756;-37.950;145.008;2022-09-14T09:42:21;101331.39;;;17.19;31.75
54870;BME280;40756;-37.950;145.008;2022-09-14T09:44:57;101330.32;;;16.88;31.13
54870;BME280;40756;-37.950;145.008;2022-09-14T09:47:30;101328.43;;;16.55;31.15
54870;BME280;40756;-37.950;145.008;2022-09-14T09:50:04;101328.15;;;16.67;30.78
54870;BME280;40756;-37.950;145.008;2022-09-14T09:52:35;101327.63;;;16.88;30.97
54870;BME280;40756;-37.950;145.008;2022-09-14T09:55:06;101321.11;;;16.71;31.27
54870;BME280;40756;-37.950;145.008;2022-09-14T09:57:37;101315.79;;;17.06;31.15
54870;BME280;40756;-37.950;145.008;2022-09-14T10:00:18;101317.09;;;16.87;31.05
54870;BME280;40756;-37.950;145.008;2022-09-14T10:02:49;101324.47;;;16.53;30.69
54870;BME280;40756;-37.950;145.008;2022-09-14T10:05:22;101322.59;;;16.64;30.60
54870;BME280;40756;-37.950;145.008;2022-09-14T10:07:55;101321.63;;;16.95;30.76
54870;BME280;40756;-37.950;145.008;2022-09-14T10:10:40;101321.26;;;16.81;31.15
54870;BME280;40756;-37.950;145.008;2022-09-14T10:13:20;101324.12;;;16.97;30.35
54870;BME280;40756;-37.950;145.008;2022-09-14T10:15:53;101325.17;;;17.17;30.44
54870;BME280;40756;-37.950;145.008;2022-09-14T10:18:33;101328.55;;;16.63;31.09
54870;BME280;40756;-37.950;145.008;2022-09-14T10:21:07;101334.25;;;17.05;30.72
54870;BME280;40756;-37.950;145.008;2022-09-14T10:23:38;101332.63;;;16.99;30.40
54870;BME280;40756;-37.950;145.008;2022-09-14T10:26:27;101336.55;;;16.84;31.08
54870;BME280;40756;-37.950;145.008;2022-09-14T10:29:27;101343.79;;;16.98;31.03
54870;BME280;40756;-37.950;145.008;2022-09-14T10:32:03;101347.98;;;17.01;30.99
54870;BME280;40756;-37.950;145.008;2022-09-14T10:34:34;101357.06;;;16.91;30.51
54870;BME280;40756;-37.950;145.008;2022-09-14T10:37:18;101360.34;;;16.82;31.32
54870;BME280;40756;-37.950;145.008;2022-09-14T10:39:57;101370.86;;;16.86;31.62
54870;BME280;40756;-37.950;145.008;2022-09-14T10:42:35;101376.40;;;17.20;31.87
54870;BME280;40756;-37.950;145.008;2022-09-14T10:45:15;101389.84;;;16.91;32.05
54870;BME280;40756;-37.950;145.008;2022-09-14T10:48:00;101393.52;;;17.33;32.63
54870;BME280;40756;-37.950;145.008;2022-09-14T10:50:42;101392.57;;;16.90;31.54
54870;BME280;40756;-37.950;145.008;2022-09-14T10:53:26;101397.98;;;17.14;31.79
54870;BME280;40756;-37.950;145.008;2022-09-14T10:56:02;101403.27;;;16.69;31.83
54870;BME280;40756;-37.950;145.008;2022-09-14T10:58:48;101409.43;;;16.43;32.38
54870;BME280;40756;-37.950;145.008;2022-09-14T11:01:32;101409.02;;;16.87;32.34
54870;BME280;40756;-37.950;145.008;2022-09-14T11:04:22;101409.09;;;16.72;32.04
54870;BME280;40756;-37.950;145.008;2022-09-14T11:07:02;101411.29;;;16.80;32.67
54870;BME280;40756;-37.950;145.008;2022-09-14T11:09:39;101406.90;;;16.74;31.70
54870;BME280;40756;-37.950;145.008;2022-09-14T11:12:20;101402.69;;;16.84;31.52
54870;BME280;40756;-37.950;145.008;2022-09-14T11:15:05;101395.78;;;17.29;31.93
54870;BME280;40756;-37.950;145.008;2022-09-14T11:17:49;101394.79;;;17.05;32.04
54870;BME280;40756;-37.950;145.008;2022-09-14T11:20:27;101395.89;;;17.07;32.68
54870;BME280;40756;-37.950;145.008;2022-09-14T11:23:06;101406.02;;;16.95;31.47
54870;BME280;40756;-37.950;145.008;2022-09-14T11:25:44;101403.65;;;17.04;31.49
54870;BME280;40756;-37.950;145.008;2022-09-14T11:28:19;101407.63;;;16.90;31.15
54870;BME280;40756;-37.950;145.008;2022-09-14T11:30:55;101404.20;;;17.00;31.81
54870;BME280;40756;-37.950;145.008;2022-09-14T11:33:34;101406.60;;;16.53;31.67
54870;BME280;40756;-37.950;145.008;2022-09-14T11:36:08;101406.86;;;17.09;31.20
54870;BME280;40756;-37.950;145.008;2022-09-14T11:38:45;101403.40;;;17.18;31.82
54870;BME280;40756;-37.950;145.008;2022-09-14T11:41:22;101400.08;;;16.58;32.15
54870;BME280;40756;-37.950;145.008;2022-09-14T11:43:58;101399.89;;;17.40;32.29
54870;BME280;40756;-37.950;145.008;2022-09-14T11:46:32;101401.80;;;17.01;32.19
54870;BME280;40756;-37.950;145.008;2022-09-14T11:49:10;101404.70;;;16.78;31.88
54870;BME280;40756;-37.950;145.008;2022-09-14T11:51:46;101394.94;;;16.95;31.27
54870;BME280;40756;-37.950;145.008;2022-09-14T11:54:20;101394.42;;;17.35;32.39
54870;BME280;40756;-37.950;145.008;2022-09-14T11:56:51;101389.59;;;16.97;31.60
54870;BME280;40756;-37.950;145.008;2022-09-14T11:59:49;101385.44;;;17.23;31.56
54870;BME280;40756;-37.950;145.008;2022-09-14T12:03:50;101380.40;;;17.05;31.70
54870;BME280;40756;-37.950;145.008;2022-09-14T12:06:56;101382.27;;;17.06;31.81
54870;BME280;40756;-37.950;145.008;2022-09-14T12:09:42;101385.56;;;17.02;32.18
54870;BME280;40756;-37.950;145.008;2022-09-14T12:12:45;101390.56;;;17.16;31.61
54870;BME280;40756;-37.950;145.008;2022-09-14T12:15:21;101397.25;;;17.17;32.28
54870;BME280;40756;-37.950;145.008;2022-09-14T12:18:13;101400.40;;;17.11;32.74
54870;BME280;40756;-37.950;145.008;2022-09-14T12:20:44;101406.59;;;16.81;32.49
54870;BME280;40756;-37.950;145.008;2022-09-14T12:23:41;101411.44;;;17.02;32.92
54870;BME280;40756;-37.950;145.008;2022-09-14T12:26:29;101417.19;;;16.74;33.92
54870;BME280;40756;-37.950;145.008;2022-09-14T12:29:05;101421.10;;;16.62;34.69
54870;BME280;40756;-37.950;145.008;2022-09-14T12:32:03;101425.90;;;15.83;35.98
54870;BME280;40756;-37.950;145.008;2022-09-14T12:34:34;101427.98;;;15.66;38.38
54870;BME280;40756;-37.950;145.008;2022-09-14T12:37:32;101426.63;;;15.75;40.99
54870;BME280;40756;-37.950;145.008;2022-09-14T12:40:36;101425.20;;;15.37;42.22
54870;BME280;40756;-37.950;145.008;2022-09-14T12:43:56;101421.95;;;15.81;43.47
54870;BME280;40756;-37.950;145.008;2022-09-14T12:46:35;101418.22;;;15.43;44.29
54870;BME280;40756;-37.950;145.008;2022-09-14T12:49:23;101416.99;;;14.97;44.73
54870;BME280;40756;-37.950;145.008;2022-09-14T12:51:57;101414.88;;;15.34;44.61
54870;BME280;40756;-37.950;145.008;2022-09-14T12:54:34;101412.74;;;15.22;44.73
54870;BME280;40756;-37.950;145.008;2022-09-14T12:57:21;101411.67;;;15.53;45.99